Time;durP1;ratioP1;P1;durP2;ratioP2;P2;SDS_P1;SDS_P2;PMS_P1;PMS_P2;Temp;Humidity;BMP_temperature;BMP_pressure;BME280_temperature;BME280_humidity;BME280_pressure;Samples;Min_cycle;Max_cycle;Signal;HPM_P1;HPM_P2
2023/02/13 00:02:22;;;;;;;4.03;2.95;;;;;;;;;;5054498;28;20312;-82
2023/02/13 00:04:49;;;;;;;3.78;3.47;;;;;;;;;;5054533;28;20931;-85
2023/02/13 00:07:17;;;;;;;3.63;3.05;;;;;;;;;;5055265;28;20225;-84
2023/02/13 00:09:44;;;;;;;4.07;3.63;;;;;;;;;;5054233;28;20260;-81
2023/02/13 00:12:12;;;;;;;3.97;3.67;;;;;;;;;;5053991;28;20260;-82
2023/02/13 00:14:40;;;;;;;4.47;3.05;;;;;;;;;;5054446;28;20240;-84
2023/02/13 00:17:09;;;;;;;3.42;3.13;;;;;;;;;;5054419;28;20739;-85
2023/02/13 00:19:36;;;;;;;2.47;2.25;;;;;;;;;;5053398;28;20233;-83
2023/02/13 00:22:04;;;;;;;2.75;2.55;;;;;;;;;;5054042;28;20205;-84
2023/02/13 00:24:31;;;;;;;3.42;2.05;;;;;;;;;;5054430;28;20740;-82
2023/02/13 00:26:59;;;;;;;3.40;2.90;;;;;;;;;;5054443;28;20265;-83
2023/02/13 00:29:26;;;;;;;2.80;2.60;;;;;;;;;;5052198;28;20277;-83
2023/02/13 00:31:54;;;;;;;2.80;2.60;;;;;;;;;;5054358;28;20285;-84
2023/02/13 00:34:23;;;;;;;3.25;2.95;;;;;;;;;;5053971;28;20704;-84
2023/02/13 00:36:50;;;;;;;3.97;3.40;;;;;;;;;;5036546;28;20315;-82
2023/02/13 00:39:18;;;;;;;3.40;3.10;;;;;;;;;;5053458;28;20265;-84
2023/02/13 00:41:45;;;;;;;2.40;2.20;;;;;;;;;;5053734;28;20292;-84
2023/02/13 00:44:13;;;;;;;2.63;2.35;;;;;;;;;;5053726;28;20225;-83
2023/02/13 00:46:40;;;;;;;2.65;2.42;;;;;;;;;;5054466;28;20288;-83
2023/02/13 00:49:08;;;;;;;2.83;2.58;;;;;;;;;;5053804;28;20690;-84
2023/02/13 00:51:37;;;;;;;2.63;2.42;;;;;;;;;;5053719;28;20204;-85
2023/02/13 00:54:05;;;;;;;2.95;2.72;;;;;;;;;;5053905;28;20792;-83
2023/02/13 00:56:32;;;;;;;2.50;2.22;;;;;;;;;;5053385;28;20201;-83
2023/02/13 00:59:00;;;;;;;2.92;2.63;;;;;;;;;;5053274;28;20276;-84
2023/02/13 01:01:27;;;;;;;2.65;2.45;;;;;;;;;;5052823;28;20288;-82
2023/02/13 01:03:54;;;;;;;2.40;2.30;;;;;;;;;;5053436;28;20708;-84
2023/02/13 01:06:22;;;;;;;2.58;2.38;;;;;;;;;;5053646;28;20329;-85
2023/02/13 01:08:51;;;;;;;2.42;2.22;;;;;;;;;;5052319;28;20225;-83
2023/02/13 01:11:18;;;;;;;2.47;2.05;;;;;;;;;;5053330;28;20205;-84
2023/02/13 01:13:46;;;;;;;3.53;3.22;;;;;;;;;;5053618;28;20226;-83
2023/02/13 01:16:16;;;;;;;2.50;2.30;;;;;;;;;;5053623;28;20300;-81
2023/02/13 01:18:44;;;;;;;1.92;1.77;;;;;;;;;;5052536;28;20264;-82
2023/02/13 01:21:18;;;;;;;2.33;2.13;;;;;;;;;;5053481;28;20206;-82
2023/02/13 01:23:46;;;;;;;2.28;1.92;;;;;;;;;;5053739;28;20244;-83
2023/02/13 01:26:19;;;;;;;2.10;2.00;;;;;;;;;;5052878;28;20210;-84
2023/02/13 01:28:47;;;;;;;1.98;1.88;;;;;;;;;;5053107;28;20264;-82
2023/02/13 01:31:15;;;;;;;2.70;2.10;;;;;;;;;;5051508;28;20208;-84
2023/02/13 01:33:42;;;;;;;2.25;2.03;;;;;;;;;;5056410;28;20221;-82
2023/02/13 01:36:13;;;;;;;2.58;2.38;;;;;;;;;;5056894;28;20304;-84
2023/02/13 01:38:40;;;;;;;2.65;2.45;;;;;;;;;;5056412;28;20221;-84
2023/02/13 01:41:09;;;;;;;2.90;2.53;;;;;;;;;;5057196;28;20212;-83
2023/02/13 01:43:51;;;;;;;2.33;2.13;;;;;;;;;;5056946;28;20222;-81
2023/02/13 01:46:24;;;;;;;2.15;1.95;;;;;;;;;;5057215;28;20202;-84
2023/02/13 01:48:54;;;;;;;3.65;3.08;;;;;;;;;;5056453;28;20211;-83
2023/02/13 01:51:26;;;;;;;2.25;2.13;;;;;;;;;;5056924;28;20198;-83
2023/02/13 01:53:59;;;;;;;3.65;2.80;;;;;;;;;;5056578;28;20236;-81
2023/02/13 01:56:30;;;;;;;3.22;2.95;;;;;;;;;;5057142;28;20690;-83
2023/02/13 01:59:03;;;;;;;2.28;2.08;;;;;;;;;;5056134;28;20229;-81
2023/02/13 02:01:32;;;;;;;2.45;2.25;;;;;;;;;;5057035;28;20289;-83
2023/02/13 02:04:05;;;;;;;2.50;2.30;;;;;;;;;;5056452;28;20308;-82
2023/02/13 02:06:36;;;;;;;3.47;3.17;;;;;;;;;;5056231;28;20210;-84
2023/02/13 02:09:08;;;;;;;2.97;2.70;;;;;;;;;;5056804;28;20289;-83
2023/02/13 02:11:41;;;;;;;2.63;2.42;;;;;;;;;;5056197;28;20201;-84
2023/02/13 02:14:10;;;;;;;2.35;2.15;;;;;;;;;;5056342;28;20225;-84
2023/02/13 02:16:38;;;;;;;3.45;2.50;;;;;;;;;;5056029;28;20288;-84
2023/02/13 02:19:08;;;;;;;2.80;2.53;;;;;;;;;;5055520;28;20316;-84
2023/02/13 02:21:55;;;;;;;2.47;2.28;;;;;;;;;;5055714;28;20289;-82
2023/02/13 02:25:13;;;;;;;2.65;2.45;;;;;;;;;;5056326;28;20288;-83
2023/02/13 02:28:27;;;;;;;2.72;2.08;;;;;;;;;;5037599;28;20202;-81
2023/02/13 02:31:44;;;;;;;2.90;2.70;;;;;;;;;;5041733;28;20201;-84
2023/02/13 02:34:18;;;;;;;3.03;2.72;;;;;;;;;;5056784;28;20660;-83
2023/02/13 02:37:02;;;;;;;2.58;2.40;;;;;;;;;;5055891;28;20209;-84
2023/02/13 02:39:39;;;;;;;2.92;2.72;;;;;;;;;;5055800;28;20257;-85
2023/02/13 02:42:18;;;;;;;2.03;1.90;;;;;;;;;;5056477;28;20961;-81
2023/02/13 02:44:53;;;;;;;3.10;2.80;;;;;;;;;;5055216;28;20678;-82
2023/02/13 02:50:33;;;;;;;2.60;2.40;;;;;;;;;;5055470;28;20186;-83
2023/02/13 09:42:23;;;;;;;3.67;3.38;;;;;;;;;;5092259;22;20300;-86
2023/02/13 09:44:51;;;;;;;6.50;5.57;;;;;;;;;;5092806;28;20260;-87
2023/02/13 09:47:28;;;;;;;5.28;4.43;;;;;;;;;;5092870;28;20211;-87
2023/02/13 09:50:00;;;;;;;5.75;4.75;;;;;;;;;;5092411;28;20204;-85
2023/02/13 09:52:32;;;;;;;4.68;4.28;;;;;;;;;;5092782;28;20205;-87
2023/02/13 09:55:00;;;;;;;6.30;5.18;;;;;;;;;;5096399;28;20227;-87
2023/02/13 09:57:34;;;;;;;6.00;4.57;;;;;;;;;;5096454;28;20223;-85
2023/02/13 10:00:12;;;;;;;5.07;4.32;;;;;;;;;;5096938;28;20424;-87
2023/02/13 10:03:06;;;;;;;5.28;4.78;;;;;;;;;;5097807;28;20793;-87
2023/02/13 10:06:12;;;;;;;5.25;4.75;;;;;;;;;;5097221;28;20291;-87
2023/02/13 10:09:02;;;;;;;4.72;4.18;;;;;;;;;;5098078;28;20200;-87
2023/02/13 10:11:53;;;;;;;5.13;4.63;;;;;;;;;;5098193;28;20251;-82
2023/02/13 10:14:26;;;;;;;3.85;3.55;;;;;;;;;;5098595;28;20220;-84
2023/02/13 10:16:59;;;;;;;3.75;3.33;;;;;;;;;;5099977;28;20288;-84
2023/02/13 10:19:35;;;;;;;3.45;3.15;;;;;;;;;;5097897;28;20571;-85
2023/02/13 10:22:14;;;;;;;4.97;4.38;;;;;;;;;;5097350;28;20228;-87
2023/02/13 10:24:47;;;;;;;4.60;4.00;;;;;;;;;;5098192;28;20306;-85
2023/02/13 10:27:22;;;;;;;8.27;4.95;;;;;;;;;;5098155;28;20249;-86
2023/02/13 10:30:11;;;;;;;6.20;5.60;;;;;;;;;;5097764;28;20198;-85
2023/02/13 10:32:48;;;;;;;5.70;5.10;;;;;;;;;;5097020;28;20204;-85
2023/02/13 10:35:22;;;;;;;5.68;5.07;;;;;;;;;;5097791;28;20310;-86
2023/02/13 10:37:54;;;;;;;5.40;4.90;;;;;;;;;;5099464;28;20215;-86
2023/02/13 10:40:21;;;;;;;4.53;3.97;;;;;;;;;;5097823;28;20244;-85
2023/02/13 10:42:57;;;;;;;6.00;4.85;;;;;;;;;;5097028;28;20240;-84
2023/02/13 10:45:48;;;;;;;4.90;4.40;;;;;;;;;;5096820;28;20951;-86
2023/02/13 10:48:36;;;;;;;5.25;4.75;;;;;;;;;;5096961;28;20239;-87
2023/02/13 10:51:10;;;;;;;4.30;3.90;;;;;;;;;;5097671;28;20207;-85
2023/02/13 10:53:53;;;;;;;5.00;4.60;;;;;;;;;;5097144;28;20225;-84
2023/02/13 10:56:27;;;;;;;4.15;3.78;;;;;;;;;;5096747;28;20214;-86
2023/02/13 10:59:31;;;;;;;5.18;4.70;;;;;;;;;;5096589;28;20290;-86
2023/02/13 11:02:03;;;;;;;3.60;3.30;;;;;;;;;;5095491;28;20223;-86
2023/02/13 11:04:31;;;;;;;5.63;5.00;;;;;;;;;;5093614;28;20665;-86
2023/02/13 11:07:01;;;;;;;4.20;3.72;;;;;;;;;;5095304;28;20239;-85
2023/02/13 11:09:30;;;;;;;4.53;4.13;;;;;;;;;;5095101;28;20706;-85
2023/02/13 11:11:57;;;;;;;5.97;5.38;;;;;;;;;;5094878;28;20307;-86
2023/02/13 11:14:26;;;;;;;6.68;6.07;;;;;;;;;;5094491;28;20307;-85
2023/02/13 11:16:56;;;;;;;4.97;4.47;;;;;;;;;;5094830;28;20418;-86
2023/02/13 11:19:31;;;;;;;4.53;4.13;;;;;;;;;;5093115;28;20295;-86
2023/02/13 11:22:04;;;;;;;5.35;4.40;;;;;;;;;;5094850;28;20204;-84
2023/02/13 11:24:32;;;;;;;8.75;7.60;;;;;;;;;;5094167;28;20787;-86
2023/02/13 11:27:04;;;;;;;5.38;4.88;;;;;;;;;;5093908;28;20679;-85
2023/02/13 11:29:34;;;;;;;5.07;4.43;;;;;;;;;;5093514;28;20293;-85
2023/02/13 11:32:21;;;;;;;4.75;4.35;;;;;;;;;;5094520;28;20315;-87
2023/02/13 11:34:51;;;;;;;6.45;5.78;;;;;;;;;;5074963;28;20220;-87
2023/02/13 11:37:25;;;;;;;7.03;6.38;;;;;;;;;;5075491;28;20240;-87
2023/02/13 11:39:54;;;;;;;5.80;5.18;;;;;;;;;;5075281;28;20281;-84
2023/02/13 11:42:29;;;;;;;6.40;5.75;;;;;;;;;;5079663;28;20219;-84
2023/02/13 11:45:00;;;;;;;4.45;4.05;;;;;;;;;;5097677;28;20239;-85
2023/02/13 11:47:35;;;;;;;3.80;3.42;;;;;;;;;;5098032;28;20189;-85
2023/02/13 11:50:05;;;;;;;8.90;6.35;;;;;;;;;;5097383;28;20180;-86
2023/02/13 11:52:35;;;;;;;5.80;4.97;;;;;;;;;;5107255;28;20239;-86
2023/02/13 11:55:06;;;;;;;4.45;3.97;;;;;;;;;;5118181;28;20228;-85
2023/02/13 11:57:35;;;;;;;4.82;4.07;;;;;;;;;;5106141;28;20264;-86
2023/02/13 12:00:29;;;;;;;5.45;4.80;;;;;;;;;;5098089;28;20561;-86
2023/02/13 12:02:57;;;;;;;6.30;5.70;;;;;;;;;;5096358;28;20200;-86
2023/02/13 12:05:28;;;;;;;5.45;4.90;;;;;;;;;;5097333;28;20200;-86
2023/02/13 12:07:59;;;;;;;5.07;4.57;;;;;;;;;;5095782;28;20291;-85
2023/02/13 12:10:29;;;;;;;4.88;4.45;;;;;;;;;;5097097;28;20226;-87
2023/02/13 12:12:59;;;;;;;5.75;4.95;;;;;;;;;;5096268;28;20660;-86
2023/02/13 12:15:30;;;;;;;5.35;4.50;;;;;;;;;;5094359;28;20298;-86
2023/02/13 12:18:06;;;;;;;4.38;3.97;;;;;;;;;;5095173;28;20636;-85
2023/02/13 12:20:50;;;;;;;6.78;6.18;;;;;;;;;;5095444;28;20293;-86
2023/02/13 12:23:29;;;;;;;5.15;4.68;;;;;;;;;;5095038;28;20656;-87
2023/02/13 12:26:20;;;;;;;4.97;4.50;;;;;;;;;;5094958;28;20291;-87
2023/02/13 12:29:07;;;;;;;5.63;4.30;;;;;;;;;;5094061;28;20228;-87
2023/02/13 12:31:45;;;;;;;5.18;4.45;;;;;;;;;;5095203;28;20234;-86
2023/02/13 12:34:38;;;;;;;6.13;5.47;;;;;;;;;;5094448;28;20232;-87
2023/02/13 12:37:19;;;;;;;5.32;4.40;;;;;;;;;;5095157;28;20207;-88
2023/02/13 12:40:01;;;;;;;5.68;5.13;;;;;;;;;;5094223;28;20206;-87
2023/02/13 12:42:41;;;;;;;5.25;4.75;;;;;;;;;;5094927;28;20204;-85
2023/02/13 12:45:27;;;;;;;4.50;3.95;;;;;;;;;;5094684;28;20230;-86
2023/02/13 12:48:28;;;;;;;5.38;4.28;;;;;;;;;;5094595;28;20234;-85
2023/02/13 12:51:11;;;;;;;5.78;5.22;;;;;;;;;;5116414;28;20226;-84
2023/02/13 12:54:24;;;;;;;5.63;5.13;;;;;;;;;;5116391;28;20299;-85
2023/02/13 12:57:06;;;;;;;5.32;4.82;;;;;;;;;;5091990;28;20295;-85
2023/02/13 12:59:58;;;;;;;5.97;5.43;;;;;;;;;;5091536;28;20212;-87
2023/02/13 13:03:03;;;;;;;5.20;4.70;;;;;;;;;;5091979;28;20197;-85
2023/02/13 13:05:55;;;;;;;4.68;4.25;;;;;;;;;;5092274;28;20206;-84
2023/02/13 13:08:37;;;;;;;4.78;4.35;;;;;;;;;;5091392;28;20206;-84
2023/02/13 13:11:22;;;;;;;5.97;4.28;;;;;;;;;;5091983;28;20208;-84
2023/02/13 13:13:59;;;;;;;4.35;3.95;;;;;;;;;;5091592;28;20220;-86
2023/02/13 13:16:34;;;;;;;5.88;5.05;;;;;;;;;;5091600;28;20200;-85
2023/02/13 13:19:10;;;;;;;5.47;4.70;;;;;;;;;;5089779;28;20199;-84
2023/02/13 13:21:44;;;;;;;4.05;3.65;;;;;;;;;;5091688;28;20219;-84
2023/02/13 13:24:33;;;;;;;7.03;5.47;;;;;;;;;;5094946;28;20242;-84
2023/02/13 13:27:03;;;;;;;5.88;5.18;;;;;;;;;;5111955;28;20206;-85
2023/02/13 13:29:44;;;;;;;5.22;4.72;;;;;;;;;;5114157;28;20199;-84
2023/02/13 13:32:16;;;;;;;5.13;4.35;;;;;;;;;;5096236;28;20724;-85
2023/02/13 13:34:44;;;;;;;4.00;3.60;;;;;;;;;;5085783;28;20225;-84
2023/02/13 13:37:19;;;;;;;5.72;4.82;;;;;;;;;;5086272;28;20703;-85
2023/02/13 13:39:52;;;;;;;5.30;4.63;;;;;;;;;;5114712;28;20195;-85
2023/02/13 13:42:27;;;;;;;6.10;5.30;;;;;;;;;;5115220;28;20204;-85
2023/02/13 13:45:09;;;;;;;4.82;4.43;;;;;;;;;;5116291;28;20225;-85
2023/02/13 13:47:48;;;;;;;5.28;4.75;;;;;;;;;;5115450;28;20199;-85
2023/02/13 13:50:21;;;;;;;5.28;4.75;;;;;;;;;;5115611;28;20764;-86
2023/02/13 13:53:12;;;;;;;5.43;4.93;;;;;;;;;;5116193;28;20230;-87
2023/02/13 13:56:08;;;;;;;5.28;4.43;;;;;;;;;;5115536;28;20199;-85
2023/02/13 13:58:45;;;;;;;9.45;7.55;;;;;;;;;;5115050;28;20218;-85
2023/02/13 14:01:29;;;;;;;6.57;5.72;;;;;;;;;;5115317;28;20203;-85
2023/02/13 14:03:58;;;;;;;4.57;3.85;;;;;;;;;;5086345;28;20252;-84
2023/02/13 14:06:28;;;;;;;5.63;4.93;;;;;;;;;;5073698;28;20306;-85
2023/02/13 14:09:38;;;;;;;5.15;4.65;;;;;;;;;;5074067;28;20205;-84
2023/02/13 14:12:45;;;;;;;6.40;5.75;;;;;;;;;;5074362;28;20245;-86
2023/02/13 14:15:53;;;;;;;5.13;4.63;;;;;;;;;;5088754;28;20223;-86
2023/02/13 14:18:22;;;;;;;5.32;4.82;;;;;;;;;;5094105;28;20207;-84
2023/02/13 14:20:54;;;;;;;4.22;3.80;;;;;;;;;;5094443;28;20211;-84
2023/02/13 14:23:35;;;;;;;5.10;3.80;;;;;;;;;;5094137;28;20643;-85
2023/02/13 14:26:21;;;;;;;4.28;3.88;;;;;;;;;;5094578;28;20206;-84
2023/02/13 14:29:14;;;;;;;6.50;5.25;;;;;;;;;;5094360;28;20195;-85
2023/02/13 14:31:51;;;;;;;6.13;5.53;;;;;;;;;;5093975;28;20205;-84
2023/02/13 14:34:23;;;;;;;6.20;5.28;;;;;;;;;;5088175;28;20228;-86
2023/02/13 14:37:28;;;;;;;7.07;5.93;;;;;;;;;;5074555;28;20182;-84
2023/02/13 14:40:33;;;;;;;4.93;4.45;;;;;;;;;;5072706;28;20204;-84
2023/02/13 14:43:14;;;;;;;5.25;4.70;;;;;;;;;;4991289;28;20680;-85
2023/02/13 14:45:49;;;;;;;5.53;5.03;;;;;;;;;;4992202;28;20629;-84
2023/02/13 14:48:18;;;;;;;6.70;5.50;;;;;;;;;;5041625;28;20197;-85
2023/02/13 14:50:49;;;;;;;5.55;5.05;;;;;;;;;;5073224;28;20264;-84
2023/02/13 14:53:22;;;;;;;5.85;5.20;;;;;;;;;;5073488;28;20241;-83
2023/02/13 14:55:56;;;;;;;4.60;4.18;;;;;;;;;;5082425;22;20739;-86
2023/02/13 14:58:27;;;;;;;3.63;3.30;;;;;;;;;;5073000;28;20209;-86
2023/02/13 15:00:59;;;;;;;4.25;3.75;;;;;;;;;;5067846;28;20319;-84
2023/02/13 15:03:31;;;;;;;5.18;4.53;;;;;;;;;;5053571;28;20548;-85
2023/02/13 15:06:04;;;;;;;4.40;3.63;;;;;;;;;;5053430;28;20218;-85
2023/02/13 15:08:36;;;;;;;6.60;5.45;;;;;;;;;;5053673;28;20618;-86
2023/02/13 15:11:34;;;;;;;5.70;4.70;;;;;;;;;;5053719;28;20214;-85
2023/02/13 15:13:51;;;;;;;4.13;3.55;;;;;;;;;;5053036;28;20602;-85
2023/02/13 15:16:19;;;;;;;3.55;3.25;;;;;;;;;;5053558;28;20201;-87
2023/02/13 15:18:51;;;;;;;3.03;2.72;;;;;;;;;;5053308;28;20635;-84
2023/02/13 15:21:21;;;;;;;3.70;2.65;;;;;;;;;;5053333;28;20640;-86
2023/02/13 15:23:52;;;;;;;2.88;2.60;;;;;;;;;;5053233;28;20186;-84
2023/02/13 15:26:22;;;;;;;3.17;2.88;;;;;;;;;;5053338;28;20194;-86
2023/02/13 15:29:01;;;;;;;2.80;2.60;;;;;;;;;;5053239;28;20197;-85
2023/02/13 15:31:33;;;;;;;2.05;1.95;;;;;;;;;;5053067;28;20230;-85
2023/02/13 15:34:02;;;;;;;2.25;2.05;;;;;;;;;;5052826;28;20308;-84
2023/02/13 15:36:40;;;;;;;2.33;2.13;;;;;;;;;;5053112;28;20606;-85
2023/02/13 15:39:15;;;;;;;2.75;2.25;;;;;;;;;;5053131;28;20259;-85
2023/02/13 15:41:45;;;;;;;2.25;2.08;;;;;;;;;;5053120;28;20221;-84
2023/02/13 15:44:18;;;;;;;2.33;2.10;;;;;;;;;;5053121;28;20288;-85
2023/02/13 15:46:50;;;;;;;2.33;2.13;;;;;;;;;;5053346;28;20196;-85
2023/02/13 15:49:21;;;;;;;2.75;2.03;;;;;;;;;;5052912;28;20240;-85
2023/02/13 15:51:49;;;;;;;2.78;2.30;;;;;;;;;;5052223;28;20220;-85
2023/02/13 15:54:26;;;;;;;2.35;2.15;;;;;;;;;;5052993;28;20339;-84
2023/02/13 15:56:55;;;;;;;2.47;2.28;;;;;;;;;;5052399;28;20645;-83
2023/02/13 15:59:22;;;;;;;3.05;2.70;;;;;;;;;;5052282;28;20217;-83
2023/02/13 16:01:50;;;;;;;2.22;2.03;;;;;;;;;;5052691;28;20225;-85
2023/02/13 16:04:19;;;;;;;2.75;2.30;;;;;;;;;;5052703;28;20729;-84
2023/02/13 16:06:48;;;;;;;2.45;2.22;;;;;;;;;;5052257;28;20225;-85
2023/02/13 16:09:32;;;;;;;2.85;2.63;;;;;;;;;;5052404;28;20442;-83
2023/02/13 16:12:06;;;;;;;2.47;2.28;;;;;;;;;;5052276;28;20620;-84
2023/02/13 16:14:36;;;;;;;3.38;2.25;;;;;;;;;;5052918;28;20221;-86
2023/02/13 16:17:06;;;;;;;2.63;2.42;;;;;;;;;;5052508;28;20190;-84
2023/02/13 16:19:39;;;;;;;3.30;3.00;;;;;;;;;;5052105;28;20186;-84
2023/02/13 16:22:21;;;;;;;2.90;2.38;;;;;;;;;;5052042;28;20257;-83
2023/02/13 16:24:51;;;;;;;2.47;2.28;;;;;;;;;;5052371;28;20590;-86
2023/02/13 16:27:20;;;;;;;2.58;2.38;;;;;;;;;;5052811;28;20208;-86
2023/02/13 16:29:54;;;;;;;3.97;2.65;;;;;;;;;;5052087;28;20211;-84
2023/02/13 16:32:28;;;;;;;2.22;2.10;;;;;;;;;;5052054;28;20218;-85
2023/02/13 16:35:13;;;;;;;3.13;2.72;;;;;;;;;;5052131;28;20228;-83
2023/02/13 16:37:51;;;;;;;4.70;3.65;;;;;;;;;;5051680;28;20576;-84
2023/02/13 16:40:41;;;;;;;4.10;3.70;;;;;;;;;;5052031;28;20185;-86
2023/02/13 16:43:51;;;;;;;8.07;6.72;;;;;;;;;;5046032;28;20212;-84
2023/02/13 16:46:25;;;;;;;7.63;5.15;;;;;;;;;;5031928;28;20252;-83
2023/02/13 16:49:17;;;;;;;5.30;4.78;;;;;;;;;;5052144;28;20276;-85
2023/02/13 16:51:48;;;;;;;3.85;3.40;;;;;;;;;;5051801;28;20224;-85
2023/02/13 16:54:22;;;;;;;4.57;4.03;;;;;;;;;;5052009;28;20674;-84
2023/02/13 16:56:52;;;;;;;4.97;3.10;;;;;;;;;;5051131;28;20260;-85
2023/02/13 16:59:31;;;;;;;5.38;4.15;;;;;;;;;;5052170;28;20191;-84
2023/02/13 17:02:15;;;;;;;4.32;3.45;;;;;;;;;;5052556;28;20316;-83
2023/02/13 17:04:45;;;;;;;5.22;4.35;;;;;;;;;;5056163;28;20265;-85
2023/02/13 17:07:17;;;;;;;5.97;4.60;;;;;;;;;;5056421;28;20302;-84
2023/02/13 17:09:44;;;;;;;4.35;3.88;;;;;;;;;;5055785;28;20765;-84
2023/02/13 17:12:15;;;;;;;3.88;3.50;;;;;;;;;;5055784;28;20308;-84
2023/02/13 17:14:43;;;;;;;3.90;3.50;;;;;;;;;;5055727;28;20621;-84
2023/02/13 17:17:13;;;;;;;3.83;3.45;;;;;;;;;;5055927;28;20573;-85
2023/02/13 17:19:40;;;;;;;6.47;3.67;;;;;;;;;;5055555;28;20281;-84
2023/02/13 17:22:08;;;;;;;3.03;2.78;;;;;;;;;;5055799;28;20320;-84
2023/02/13 17:24:37;;;;;;;4.95;4.47;;;;;;;;;;5055198;28;20725;-83
2023/02/13 17:27:04;;;;;;;8.07;4.80;;;;;;;;;;5055664;28;20208;-85
2023/02/13 17:29:32;;;;;;;5.45;4.43;;;;;;;;;;5054692;28;20201;-83
2023/02/13 17:31:59;;;;;;;5.78;5.18;;;;;;;;;;5055403;28;20222;-83
2023/02/13 17:34:27;;;;;;;6.72;5.45;;;;;;;;;;5055239;28;20308;-83
2023/02/13 17:36:54;;;;;;;5.35;4.35;;;;;;;;;;5055413;28;20237;-83
2023/02/13 17:39:22;;;;;;;4.07;3.67;;;;;;;;;;5054073;28;20284;-86
2023/02/13 17:41:50;;;;;;;3.70;3.17;;;;;;;;;;5053338;28;20256;-85
2023/02/13 17:44:18;;;;;;;3.72;3.42;;;;;;;;;;5054762;28;20296;-83
2023/02/13 17:46:45;;;;;;;4.20;3.80;;;;;;;;;;5054850;28;20292;-83
2023/02/13 17:49:13;;;;;;;5.70;5.10;;;;;;;;;;5054611;28;20640;-84
2023/02/13 17:51:42;;;;;;;4.57;4.13;;;;;;;;;;5054826;28;20240;-84
2023/02/13 17:54:12;;;;;;;3.85;3.53;;;;;;;;;;5054347;28;20355;-85
2023/02/13 17:56:39;;;;;;;4.28;3.88;;;;;;;;;;5054486;28;20205;-84
2023/02/13 17:59:08;;;;;;;5.70;5.07;;;;;;;;;;5054414;28;20962;-84
2023/02/13 18:01:35;;;;;;;3.58;3.28;;;;;;;;;;5054593;28;20316;-85
2023/02/13 18:04:03;;;;;;;4.85;4.43;;;;;;;;;;5054385;28;20211;-85
2023/02/13 18:06:30;;;;;;;4.43;4.03;;;;;;;;;;5054054;28;20289;-84
2023/02/13 18:08:58;;;;;;;4.07;3.60;;;;;;;;;;5054560;28;20300;-85
2023/02/13 18:11:25;;;;;;;4.50;4.10;;;;;;;;;;5054327;28;20221;-84
2023/02/13 18:13:53;;;;;;;5.18;4.22;;;;;;;;;;5053747;28;20202;-84
2023/02/13 18:16:24;;;;;;;7.85;5.78;;;;;;;;;;5054702;28;20232;-83
2023/02/13 18:18:51;;;;;;;9.45;6.88;;;;;;;;;;5054136;28;20186;-84
2023/02/13 18:21:22;;;;;;;8.35;6.00;;;;;;;;;;5054591;28;20664;-83
2023/02/13 18:23:53;;;;;;;6.90;4.60;;;;;;;;;;5054869;28;20193;-84
2023/02/13 18:26:20;;;;;;;5.38;4.78;;;;;;;;;;5054363;28;20201;-82
2023/02/13 18:28:51;;;;;;;5.32;4.20;;;;;;;;;;5054163;28;20324;-84
2023/02/13 18:31:18;;;;;;;3.90;3.50;;;;;;;;;;5054512;28;20702;-85
2023/02/13 18:33:47;;;;;;;4.35;3.95;;;;;;;;;;5053647;28;20292;-85
2023/02/13 18:36:15;;;;;;;6.57;4.07;;;;;;;;;;5054040;28;20639;-82
2023/02/13 18:38:42;;;;;;;4.55;4.15;;;;;;;;;;5054131;28;20312;-84
2023/02/13 18:41:10;;;;;;;5.00;4.32;;;;;;;;;;5053835;28;20312;-84
2023/02/13 18:43:37;;;;;;;3.85;3.47;;;;;;;;;;5053893;28;20579;-83
2023/02/13 18:46:05;;;;;;;4.07;3.30;;;;;;;;;;5054335;28;20281;-85
2023/02/13 18:48:33;;;;;;;4.28;3.88;;;;;;;;;;5053950;28;20670;-84
2023/02/13 18:51:01;;;;;;;4.95;4.43;;;;;;;;;;5053736;28;20628;-84
2023/02/13 18:53:30;;;;;;;4.00;3.60;;;;;;;;;;5053658;28;20301;-82
2023/02/13 18:56:02;;;;;;;4.00;3.30;;;;;;;;;;5054900;28;20317;-84
2023/02/13 18:58:29;;;;;;;5.72;2.95;;;;;;;;;;5055089;28;20213;-84
2023/02/13 19:00:57;;;;;;;4.28;3.88;;;;;;;;;;5055832;28;20264;-85
2023/02/13 19:03:24;;;;;;;3.75;3.30;;;;;;;;;;5056119;28;20209;-84
2023/02/13 19:05:52;;;;;;;4.15;3.85;;;;;;;;;;5056924;28;20204;-86
2023/02/13 19:08:21;;;;;;;2.80;2.40;;;;;;;;;;5056253;28;20289;-83
2023/02/13 19:10:48;;;;;;;2.65;2.45;;;;;;;;;;5056446;28;20260;-84
2023/02/13 19:13:16;;;;;;;2.92;2.65;;;;;;;;;;5055808;28;20224;-83
2023/02/13 19:15:43;;;;;;;3.88;3.58;;;;;;;;;;5054716;28;20289;-84
2023/02/13 19:18:10;;;;;;;5.25;4.63;;;;;;;;;;5054094;28;20289;-83
2023/02/13 19:20:41;;;;;;;5.22;4.47;;;;;;;;;;5054950;28;20257;-84
2023/02/13 19:23:09;;;;;;;6.00;5.40;;;;;;;;;;5056364;28;20209;-83
2023/02/13 19:25:38;;;;;;;7.35;6.28;;;;;;;;;;5054991;28;20229;-83
2023/02/13 19:28:06;;;;;;;6.70;6.00;;;;;;;;;;5056028;28;20201;-85
2023/02/13 19:30:33;;;;;;;5.68;5.13;;;;;;;;;;5055688;28;20248;-86
2023/02/13 19:33:01;;;;;;;5.57;4.72;;;;;;;;;;5055505;28;20210;-84
2023/02/13 19:35:29;;;;;;;5.55;4.82;;;;;;;;;;5055497;28;20257;-85
2023/02/13 19:37:56;;;;;;;7.18;5.25;;;;;;;;;;5055402;28;20581;-83
2023/02/13 19:40:24;;;;;;;4.82;4.18;;;;;;;;;;5054682;28;20236;-84
2023/02/13 19:42:53;;;;;;;4.40;3.85;;;;;;;;;;5055554;28;20960;-83
2023/02/13 19:45:22;;;;;;;5.18;4.47;;;;;;;;;;5055228;28;20206;-83
2023/02/13 19:47:53;;;;;;;4.97;4.45;;;;;;;;;;5056626;28;20576;-84
2023/02/13 19:50:23;;;;;;;5.05;4.53;;;;;;;;;;5056940;28;20596;-86
2023/02/13 19:52:54;;;;;;;5.18;3.75;;;;;;;;;;5057496;28;20228;-85
2023/02/13 19:55:26;;;;;;;5.10;4.60;;;;;;;;;;5055910;28;20198;-83
2023/02/13 19:57:54;;;;;;;4.45;4.05;;;;;;;;;;5055340;28;20213;-83
2023/02/13 20:00:22;;;;;;;4.85;4.45;;;;;;;;;;5054330;28;20270;-84
2023/02/13 20:02:52;;;;;;;4.18;3.88;;;;;;;;;;5053997;28;20220;-83
2023/02/13 20:05:19;;;;;;;5.38;4.88;;;;;;;;;;5054666;28;20201;-84
2023/02/13 20:07:49;;;;;;;5.57;5.07;;;;;;;;;;5054802;28;20285;-83
2023/02/13 20:10:17;;;;;;;6.45;4.80;;;;;;;;;;5053992;28;20209;-86
2023/02/13 20:12:45;;;;;;;7.13;6.22;;;;;;;;;;5054579;28;20735;-85
2023/02/13 20:15:14;;;;;;;8.85;6.88;;;;;;;;;;5054145;28;20689;-85
2023/02/13 20:17:41;;;;;;;8.27;7.47;;;;;;;;;;5054013;28;20308;-83
2023/02/13 20:20:10;;;;;;;7.20;6.35;;;;;;;;;;5053774;28;20715;-83
2023/02/13 20:22:38;;;;;;;8.43;7.63;;;;;;;;;;5053154;28;20222;-86
2023/02/13 20:25:06;;;;;;;7.20;6.50;;;;;;;;;;5053342;28;20288;-83
2023/02/13 20:27:40;;;;;;;6.95;6.25;;;;;;;;;;5053250;28;20247;-82
2023/02/13 20:30:10;;;;;;;7.45;6.75;;;;;;;;;;5053255;28;20194;-82
2023/02/13 20:32:40;;;;;;;7.90;7.15;;;;;;;;;;5054286;28;20313;-84
2023/02/13 20:35:08;;;;;;;6.97;6.18;;;;;;;;;;5054064;28;20198;-84
2023/02/13 20:37:36;;;;;;;7.10;5.72;;;;;;;;;;5053812;28;20312;-83
2023/02/13 20:40:04;;;;;;;6.95;6.25;;;;;;;;;;5052633;28;20637;-84
2023/02/13 20:42:33;;;;;;;5.82;5.20;;;;;;;;;;5053800;28;20222;-85
2023/02/13 20:45:01;;;;;;;26.85;22.27;;;;;;;;;;5054208;28;20212;-85
2023/02/13 20:47:29;;;;;;;13.85;11.68;;;;;;;;;;5055236;28;20631;-86
2023/02/13 20:49:57;;;;;;;11.15;8.75;;;;;;;;;;5053753;28;20237;-84
2023/02/13 20:52:25;;;;;;;8.40;7.50;;;;;;;;;;5053357;28;20257;-82
2023/02/13 20:54:52;;;;;;;8.38;7.50;;;;;;;;;;5054109;28;20304;-84
2023/02/13 20:57:20;;;;;;;10.75;8.63;;;;;;;;;;5053242;28;20679;-83
2023/02/13 20:59:47;;;;;;;8.75;7.70;;;;;;;;;;5053190;28;20288;-83
2023/02/13 21:02:17;;;;;;;7.95;7.15;;;;;;;;;;5053972;28;20320;-83
2023/02/13 21:04:44;;;;;;;8.80;7.88;;;;;;;;;;5053584;28;20206;-82
2023/02/13 21:07:15;;;;;;;8.68;7.78;;;;;;;;;;5052964;28;20197;-82
2023/02/13 21:09:43;;;;;;;7.22;6.53;;;;;;;;;;5053094;28;20623;-82
2023/02/13 21:12:13;;;;;;;10.25;6.15;;;;;;;;;;5053325;28;20618;-83
2023/02/13 21:14:41;;;;;;;7.22;6.25;;;;;;;;;;5052486;28;20194;-83
2023/02/13 21:17:09;;;;;;;6.32;5.72;;;;;;;;;;5052591;28;20317;-85
2023/02/13 21:19:36;;;;;;;7.38;6.07;;;;;;;;;;5053354;28;20185;-85
2023/02/13 21:22:13;;;;;;;6.90;6.28;;;;;;;;;;5052961;28;20229;-85
2023/02/13 21:24:46;;;;;;;5.50;4.95;;;;;;;;;;5053159;28;20181;-84
2023/02/13 21:27:13;;;;;;;6.70;5.18;;;;;;;;;;5052871;28;20237;-84
2023/02/13 21:29:41;;;;;;;5.63;5.05;;;;;;;;;;5052690;28;20243;-84
2023/02/13 21:32:08;;;;;;;5.38;4.50;;;;;;;;;;5052860;28;20226;-84
2023/02/13 21:34:38;;;;;;;4.00;3.70;;;;;;;;;;5053464;28;20312;-83
2023/02/13 21:37:06;;;;;;;4.80;4.25;;;;;;;;;;5052020;28;20222;-85
2023/02/13 21:39:35;;;;;;;5.40;4.93;;;;;;;;;;5052778;28;20225;-84
2023/02/13 21:42:04;;;;;;;5.80;5.20;;;;;;;;;;5052895;28;20637;-85
2023/02/13 21:44:32;;;;;;;5.32;4.82;;;;;;;;;;5053207;28;20213;-85
2023/02/13 21:46:59;;;;;;;4.40;4.00;;;;;;;;;;5053160;28;20241;-84
2023/02/13 21:49:27;;;;;;;7.05;5.15;;;;;;;;;;5053671;28;20237;-83
2023/02/13 21:51:55;;;;;;;4.00;3.70;;;;;;;;;;5056148;28;20667;-83
2023/02/13 21:54:22;;;;;;;5.57;5.07;;;;;;;;;;5056466;28;20288;-84
2023/02/13 21:56:49;;;;;;;5.97;5.25;;;;;;;;;;5055777;28;20300;-83
2023/02/13 21:59:19;;;;;;;7.07;5.13;;;;;;;;;;5055253;28;20292;-83
2023/02/13 22:01:49;;;;;;;6.97;5.60;;;;;;;;;;5056438;28;20249;-82
2023/02/13 22:04:18;;;;;;;5.50;5.00;;;;;;;;;;5055914;28;20205;-82
2023/02/13 22:06:49;;;;;;;5.93;5.32;;;;;;;;;;5055908;28;20578;-82
2023/02/13 22:09:18;;;;;;;6.30;5.70;;;;;;;;;;5055876;28;20214;-82
2023/02/13 22:11:46;;;;;;;5.78;4.65;;;;;;;;;;5055795;28;20304;-83
2023/02/13 22:14:16;;;;;;;6.88;5.78;;;;;;;;;;5054418;28;20300;-83